Time;durP1;ratioP1;P1;durP2;ratioP2;P2;SDS_P1;SDS_P2;PMS_P1;PMS_P2;Temp;Humidity;BMP_temperature;BMP_pressure;BME280_temperature;BME280_humidity;BME280_pressure;Samples;Min_cycle;Max_cycle;Signal;HPM_P1;HPM_P2
2021/08/22 00:01:56;;;;;;;13.63;9.18;;;;;;;17.50;51.43;101561.16;5073324;28;20032;-68
2021/08/22 00:04:22;;;;;;;13.07;9.00;;;;;;;17.51;51.57;101562.84;5055919;28;20361;-69
2021/08/22 00:06:47;;;;;;;10.73;8.48;;;;;;;17.45;51.57;101557.91;5071120;28;20043;-69
2021/08/22 00:09:13;;;;;;;13.10;9.25;;;;;;;17.45;51.89;101557.91;5054842;28;20405;-69
2021/08/22 00:11:38;;;;;;;8.98;8.02;;;;;;;17.39;51.95;101559.09;5058263;28;20033;-69
2021/08/22 00:14:04;;;;;;;11.20;8.80;;;;;;;17.45;51.90;101557.91;5058490;28;20058;-69
2021/08/22 00:16:29;;;;;;;14.00;9.32;;;;;;;17.45;51.61;101549.97;5057288;28;20028;-69
2021/08/22 00:18:55;;;;;;;13.25;8.55;;;;;;;17.38;51.98;101556.53;5061246;28;20037;-70
2021/08/22 00:21:20;;;;;;;13.55;8.93;;;;;;;17.46;51.92;101559.59;5071387;28;20046;-70
2021/08/22 00:23:46;;;;;;;11.60;8.35;;;;;;;17.47;51.77;101550.72;5068237;28;20036;-69
2021/08/22 00:26:12;;;;;;;9.63;7.25;;;;;;;17.50;51.88;101539.16;5070653;28;20044;-69
2021/08/22 00:28:37;;;;;;;9.52;8.18;;;;;;;17.48;51.97;101541.03;5057428;28;20408;-70
2021/08/22 00:31:03;;;;;;;10.70;8.23;;;;;;;17.50;51.77;101534.72;5056561;28;20600;-69
2021/08/22 00:33:28;;;;;;;7.95;6.93;;;;;;;17.46;51.93;101538.44;5068640;28;20086;-69
2021/08/22 00:35:54;;;;;;;9.57;7.57;;;;;;;17.32;52.08;101531.34;5054298;28;20051;-69
2021/08/22 00:38:19;;;;;;;12.43;7.63;;;;;;;17.41;52.21;101524.66;5054723;28;20044;-69
2021/08/22 00:40:48;;;;;;;11.65;6.78;;;;;;;17.43;52.03;101525.44;5053235;28;20068;-68
2021/08/22 00:43:13;;;;;;;10.73;7.68;;;;;;;17.46;51.91;101517.31;5055511;28;20064;-69
2021/08/22 00:45:39;;;;;;;9.15;7.32;;;;;;;17.43;51.84;101506.94;5058249;28;20778;-69
2021/08/22 00:48:05;;;;;;;10.95;8.07;;;;;;;17.38;51.83;101509.84;5063823;28;20940;-70
2021/08/22 00:50:32;;;;;;;9.75;7.38;;;;;;;17.35;52.05;101514.44;5054965;28;20033;-70
2021/08/22 00:52:59;;;;;;;14.18;6.95;;;;;;;17.41;51.85;101509.66;5064595;28;20033;-69
2021/08/22 00:55:25;;;;;;;12.00;7.45;;;;;;;17.34;51.88;101504.84;5057072;28;20048;-70
2021/08/22 00:57:51;;;;;;;8.90;7.30;;;;;;;17.41;51.70;101498.25;5062851;28;20041;-69
2021/08/22 01:00:17;;;;;;;8.25;6.53;;;;;;;17.39;51.45;101490.38;5053517;28;20064;-69
2021/08/22 01:02:49;;;;;;;9.10;7.10;;;;;;;17.34;51.83;101494.25;5057345;28;20066;-68
2021/08/22 01:05:41;;;;;;;11.57;6.90;;;;;;;17.32;51.73;101493.50;5074050;28;20060;-68
2021/08/22 01:08:31;;;;;;;11.98;9.05;;;;;;;17.29;51.67;101489.25;5057499;28;20080;-70
2021/08/22 01:11:15;;;;;;;9.38;7.03;;;;;;;17.22;51.73;101487.88;5049526;28;20039;-70
2021/08/22 01:13:49;;;;;;;9.65;7.18;;;;;;;17.14;51.98;101480.41;5075700;28;20418;-69
2021/08/22 01:16:18;;;;;;;7.50;5.97;;;;;;;17.24;51.61;101481.56;5074218;28;20043;-69
2021/08/22 01:18:47;;;;;;;8.57;7.07;;;;;;;17.09;51.70;101482.50;5057275;28;20079;-68
2021/08/22 01:21:18;;;;;;;11.07;6.85;;;;;;;17.05;51.93;101483.59;5073183;28;20160;-69
2021/08/22 01:24:03;;;;;;;8.27;7.07;;;;;;;17.06;51.76;101480.00;5066286;28;20041;-69
2021/08/22 01:26:31;;;;;;;8.80;6.78;;;;;;;17.03;51.78;101477.56;5061171;28;20033;-70
2021/08/22 01:29:01;;;;;;;9.57;6.60;;;;;;;16.99;51.99;101473.38;5074875;28;20111;-69
2021/08/22 01:31:36;;;;;;;9.23;6.45;;;;;;;16.95;52.05;101470.06;5057023;28;20032;-68
2021/08/22 01:34:02;;;;;;;9.10;6.95;;;;;;;16.91;52.13;101479.13;5061280;28;20048;-70
2021/08/22 01:36:30;;;;;;;8.43;6.82;;;;;;;16.89;52.09;101469.56;5066048;28;20380;-70
2021/08/22 01:38:56;;;;;;;12.35;6.68;;;;;;;16.82;52.26;101463.78;5059229;28;20032;-69
2021/08/22 01:41:23;;;;;;;9.52;5.63;;;;;;;16.71;52.53;101460.88;5043462;28;20207;-69
2021/08/22 01:43:50;;;;;;;9.63;6.47;;;;;;;16.75;52.41;101447.44;5058536;28;20036;-69
2021/08/22 01:46:17;;;;;;;7.00;5.85;;;;;;;16.71;52.62;101450.31;5059501;28;20910;-69
2021/08/22 01:48:44;;;;;;;8.38;5.22;;;;;;;16.70;52.40;101449.47;5073043;28;20571;-69
2021/08/22 01:51:10;;;;;;;8.35;6.25;;;;;;;16.70;52.24;101438.06;5073518;28;20036;-69
2021/08/22 01:53:36;;;;;;;8.18;5.82;;;;;;;16.57;52.59;101443.19;5059046;28;20036;-68
2021/08/22 01:56:02;;;;;;;8.98;5.93;;;;;;;16.58;52.58;101439.63;5060013;28;20048;-68
2021/08/22 01:58:29;;;;;;;8.48;6.28;;;;;;;16.51;52.68;101438.25;5055730;28;20025;-69
2021/08/22 02:00:55;;;;;;;9.35;6.22;;;;;;;16.50;52.56;101431.28;5061454;28;20036;-68
2021/08/22 02:03:38;;;;;;;8.18;6.22;;;;;;;16.49;52.46;101433.06;5059173;28;20620;-70
2021/08/22 02:06:23;;;;;;;7.13;5.40;;;;;;;16.47;52.48;101436.75;5060280;28;20061;-69
2021/08/22 02:08:52;;;;;;;8.25;5.25;;;;;;;16.48;52.51;101431.34;5072322;28;20050;-68
2021/08/22 02:11:24;;;;;;;9.60;4.97;;;;;;;16.40;52.50;101437.06;5063511;28;20532;-69
2021/08/22 02:13:51;;;;;;;6.82;5.50;;;;;;;16.36;52.67;101429.44;5060059;28;20751;-69
2021/08/22 02:16:21;;;;;;;10.23;4.20;;;;;;;16.35;52.48;101439.13;5057769;28;20044;-69
2021/08/22 02:18:48;;;;;;;5.07;4.38;;;;;;;16.34;52.62;101434.78;5048720;28;20130;-68
2021/08/22 02:21:14;;;;;;;8.40;5.40;;;;;;;16.28;52.63;101431.63;5054847;28;20094;-68
2021/08/22 02:23:40;;;;;;;7.45;4.82;;;;;;;16.26;52.74;101433.50;5057076;28;20059;-69
2021/08/22 02:26:06;;;;;;;7.45;5.13;;;;;;;16.23;52.61;101433.69;5058253;28;20555;-68
2021/08/22 02:28:33;;;;;;;4.95;4.32;;;;;;;16.21;52.75;101433.75;5071746;28;20037;-71
2021/08/22 02:30:59;;;;;;;4.97;4.35;;;;;;;16.16;52.78;101422.63;5063115;28;20045;-68
2021/08/22 02:33:25;;;;;;;5.03;3.83;;;;;;;16.23;52.71;101423.97;5065846;28;20115;-69
2021/08/22 02:35:51;;;;;;;4.97;4.20;;;;;;;16.11;52.67;101430.78;5057214;28;20079;-68
2021/08/22 02:38:16;;;;;;;5.13;4.30;;;;;;;16.17;52.53;101421.66;5056452;28;20045;-69
2021/08/22 02:40:42;;;;;;;7.70;4.65;;;;;;;16.13;52.38;101422.75;5058276;28;20735;-70
2021/08/22 02:43:08;;;;;;;7.43;4.20;;;;;;;16.17;52.06;101416.38;5059977;28;20033;-68
2021/08/22 02:45:33;;;;;;;7.05;4.68;;;;;;;16.17;52.06;101416.38;5057571;28;20094;-69
2021/08/22 02:48:00;;;;;;;6.00;3.97;;;;;;;16.20;51.88;101408.31;5054356;28;20475;-68
2021/08/22 02:50:28;;;;;;;5.03;3.55;;;;;;;16.18;51.56;101404.91;5072374;28;20533;-69
2021/08/22 02:52:54;;;;;;;5.13;3.97;;;;;;;16.11;51.68;101404.41;5070936;28;20029;-69
2021/08/22 02:55:21;;;;;;;5.40;3.97;;;;;;;16.07;51.67;101394.13;5058325;28;20048;-68
2021/08/22 02:57:46;;;;;;;5.70;4.22;;;;;;;16.03;51.80;101397.84;5058475;28;20037;-69
2021/08/22 03:00:15;;;;;;;5.78;3.95;;;;;;;16.02;51.61;101393.50;5054036;28;20383;-69
2021/08/22 03:02:41;;;;;;;6.57;3.72;;;;;;;16.05;51.57;101383.66;5060743;28;20033;-69
2021/08/22 03:05:07;;;;;;;4.95;4.18;;;;;;;16.07;51.42;101383.56;5057708;28;20113;-69
2021/08/22 03:07:32;;;;;;;4.25;3.40;;;;;;;15.94;51.46;101384.19;5063426;28;20113;-69
2021/08/22 03:09:57;;;;;;;4.03;3.22;;;;;;;16.01;51.16;101376.84;5044571;28;20044;-69
2021/08/22 03:12:23;;;;;;;4.45;3.20;;;;;;;15.91;51.55;101381.75;5056667;28;20028;-69
2021/08/22 03:14:49;;;;;;;4.63;2.97;;;;;;;15.95;51.18;101372.72;5072796;28;20447;-68
2021/08/22 03:17:14;;;;;;;5.15;3.78;;;;;;;15.94;51.22;101370.19;5056218;28;20502;-68
2021/08/22 03:19:40;;;;;;;4.85;2.65;;;;;;;15.89;51.25;101370.44;5055044;28;20700;-68
2021/08/22 03:22:05;;;;;;;4.85;3.30;;;;;;;15.87;51.36;101374.94;5054566;28;20044;-69
2021/08/22 03:24:31;;;;;;;4.63;3.78;;;;;;;15.84;51.24;101374.22;5054715;28;20044;-69
2021/08/22 03:26:57;;;;;;;3.30;2.70;;;;;;;15.93;51.12;101368.44;5070453;28;20036;-69
2021/08/22 03:29:22;;;;;;;6.22;3.67;;;;;;;15.95;51.34;101378.00;5057215;28;20037;-69
2021/08/22 03:31:47;;;;;;;5.85;3.10;;;;;;;15.98;51.10;101367.28;5070692;28;20085;-68
2021/08/22 03:34:13;;;;;;;4.95;3.47;;;;;;;15.98;51.00;101363.81;5052370;28;20190;-68
2021/08/22 03:36:38;;;;;;;6.35;3.13;;;;;;;15.95;50.72;101370.09;5053422;28;20060;-68
2021/08/22 03:39:05;;;;;;;5.60;3.58;;;;;;;15.74;51.33;101371.25;5070195;28;20075;-68
2021/08/22 03:41:33;;;;;;;4.38;3.20;;;;;;;15.91;50.79;101367.72;5053231;28;20028;-69
2021/08/22 03:43:59;;;;;;;5.35;3.83;;;;;;;15.93;50.80;101365.81;5055385;28;20171;-69
2021/08/22 03:46:25;;;;;;;5.03;2.90;;;;;;;15.92;50.93;101367.63;5053207;28;20037;-69
2021/08/22 03:48:50;;;;;;;7.20;2.95;;;;;;;15.88;50.76;101360.81;5069093;28;20052;-69
2021/08/22 03:51:16;;;;;;;5.30;2.58;;;;;;;15.91;50.89;101371.19;5067955;28;20029;-69
2021/08/22 03:53:41;;;;;;;4.35;2.15;;;;;;;15.95;50.46;101366.59;5070545;28;20130;-69
2021/08/22 03:56:07;;;;;;;3.20;2.88;;;;;;;15.95;50.31;101366.59;5062006;28;20036;-69
2021/08/22 03:58:32;;;;;;;5.53;3.28;;;;;;;15.87;50.48;101359.13;5055215;28;20127;-69
2021/08/22 04:01:00;;;;;;;11.20;3.17;;;;;;;15.91;50.42;101368.56;5050470;28;20045;-69
2021/08/22 04:03:26;;;;;;;3.70;2.42;;;;;;;15.88;50.32;101371.34;5058460;28;20025;-69
2021/08/22 04:06:10;;;;;;;6.00;2.78;;;;;;;15.87;50.49;101369.66;5056620;28;20109;-69
2021/08/22 04:08:36;;;;;;;5.45;2.88;;;;;;;15.73;50.75;101367.78;5054563;28;20088;-69
2021/08/22 04:11:02;;;;;;;5.32;2.90;;;;;;;15.78;50.49;101367.53;5054868;28;20040;-69
2021/08/22 04:13:27;;;;;;;11.43;2.88;;;;;;;15.79;50.51;101369.22;5056008;28;20039;-69
2021/08/22 04:15:53;;;;;;;6.68;3.22;;;;;;;15.79;50.31;101361.31;5053636;28;20036;-69
2021/08/22 04:18:19;;;;;;;5.13;2.95;;;;;;;15.82;50.45;101363.78;5067624;28;20037;-69
2021/08/22 04:20:44;;;;;;;4.13;3.17;;;;;;;15.73;50.72;101359.03;5056302;28;20083;-69
2021/08/22 04:23:11;;;;;;;3.05;2.30;;;;;;;15.81;50.45;101359.44;5053643;28;20025;-69
2021/08/22 04:25:37;;;;;;;3.30;2.45;;;;;;;15.79;50.77;101356.03;5056172;28;20037;-70
2021/08/22 04:28:06;;;;;;;5.07;3.17;;;;;;;15.88;50.17;101350.25;5053818;28;20092;-69
2021/08/22 04:30:32;;;;;;;3.30;2.20;;;;;;;15.88;50.25;101352.91;5062068;28;20040;-69
2021/08/22 04:32:57;;;;;;;5.35;2.60;;;;;;;15.81;50.32;101351.53;5059866;28;20021;-69
2021/08/22 04:35:22;;;;;;;3.72;2.63;;;;;;;15.89;50.05;101359.88;5054175;28;20187;-69
2021/08/22 04:37:48;;;;;;;5.82;2.03;;;;;;;15.89;49.99;101359.03;5052542;28;20115;-69
2021/08/22 04:40:14;;;;;;;3.75;2.33;;;;;;;15.86;50.38;101365.31;5053854;28;20268;-70
2021/08/22 04:42:39;;;;;;;5.18;2.20;;;;;;;15.85;50.20;101365.41;5064504;28;20625;-69
2021/08/22 04:45:05;;;;;;;4.28;2.63;;;;;;;15.79;50.18;101372.72;5059810;28;20147;-69
2021/08/22 04:47:31;;;;;;;3.67;2.70;;;;;;;15.91;50.02;101368.56;5063906;28;20128;-69
2021/08/22 04:49:56;;;;;;;7.53;2.08;;;;;;;15.85;49.87;101374.16;5057395;28;20033;-70
2021/08/22 04:52:22;;;;;;;3.50;2.22;;;;;;;15.86;50.26;101372.38;5057854;28;20078;-69
2021/08/22 04:54:47;;;;;;;5.45;2.53;;;;;;;15.88;50.11;101375.78;5072199;28;20036;-69
2021/08/22 04:57:13;;;;;;;3.22;2.25;;;;;;;15.91;50.05;101376.47;5058393;28;20029;-69
2021/08/22 04:59:38;;;;;;;2.85;1.83;;;;;;;15.82;50.07;101376.09;5073510;28;20132;-69
2021/08/22 05:02:05;;;;;;;3.08;2.25;;;;;;;15.95;49.85;101380.66;5057069;28;20036;-71
2021/08/22 05:04:31;;;;;;;11.57;2.55;;;;;;;16.00;49.91;101375.16;5047978;28;20033;-69
2021/08/22 05:06:57;;;;;;;3.97;2.10;;;;;;;16.07;49.60;101370.38;5053973;28;20095;-69
2021/08/22 05:09:22;;;;;;;2.58;1.90;;;;;;;16.03;49.85;101368.84;5055033;28;20131;-69
2021/08/22 05:11:48;;;;;;;4.75;2.30;;;;;;;16.05;49.96;101372.25;5057918;28;20052;-69
2021/08/22 05:14:14;;;;;;;2.67;1.75;;;;;;;16.07;49.81;101370.38;5058461;28;20092;-69
2021/08/22 05:16:41;;;;;;;4.10;2.55;;;;;;;16.04;49.70;101365.25;5056771;28;20032;-71
2021/08/22 05:19:06;;;;;;;3.92;1.50;;;;;;;16.05;49.70;101366.97;5063332;28;20044;-69
2021/08/22 05:21:32;;;;;;;5.20;1.63;;;;;;;16.07;49.58;101376.50;5062962;28;20062;-68
2021/08/22 05:23:57;;;;;;;2.78;2.03;;;;;;;16.10;49.64;101371.06;5058617;28;20083;-69
2021/08/22 05:26:23;;;;;;;4.80;2.38;;;;;;;15.98;49.68;101369.91;5058678;28;20620;-69
2021/08/22 05:28:48;;;;;;;2.40;1.70;;;;;;;15.80;50.50;101373.56;5074264;28;20028;-69
2021/08/22 05:31:14;;;;;;;3.20;2.28;;;;;;;15.73;50.61;101365.16;5057755;28;20113;-69
2021/08/22 05:33:39;;;;;;;3.50;1.67;;;;;;;15.74;50.52;101374.75;5062423;28;20101;-68
2021/08/22 05:36:19;;;;;;;4.20;1.90;;;;;;;15.99;50.02;101368.13;5046318;28;20482;-68
2021/08/22 05:38:45;;;;;;;2.25;1.48;;;;;;;16.00;49.72;101370.72;5055685;28;20057;-69
2021/08/22 05:41:11;;;;;;;5.57;2.70;;;;;;;16.07;49.83;101375.66;5054280;28;20041;-69
2021/08/22 05:43:37;;;;;;;7.15;2.80;;;;;;;16.02;49.83;101377.69;5054901;28;20032;-69
2021/08/22 05:46:03;;;;;;;4.60;1.80;;;;;;;16.05;49.70;101378.38;5069950;28;20056;-70
2021/08/22 05:48:29;;;;;;;3.83;1.90;;;;;;;15.92;49.86;101375.53;5063546;28;20037;-69
2021/08/22 05:50:54;;;;;;;8.85;1.92;;;;;;;15.82;50.28;101384.88;5058696;28;20040;-70
2021/08/22 05:53:20;;;;;;;4.43;2.90;;;;;;;15.94;49.82;101384.19;5057238;28;20139;-69
2021/08/22 05:55:45;;;;;;;3.17;1.88;;;;;;;16.05;49.44;101381.00;5068491;28;20358;-69
2021/08/22 05:58:11;;;;;;;2.50;1.95;;;;;;;15.89;50.13;101383.59;5071219;28;20661;-70
2021/08/22 06:00:37;;;;;;;46.25;17.05;;;;;;;15.99;49.97;101384.81;5057597;28;20025;-69
2021/08/22 06:03:03;;;;;;;3.67;2.28;;;;;;;15.78;50.21;101388.63;5055811;28;20039;-70
2021/08/22 06:05:29;;;;;;;3.15;1.77;;;;;;;15.89;50.22;101386.25;5056800;28;20050;-69
2021/08/22 06:07:55;;;;;;;2.83;2.17;;;;;;;15.97;50.13;101385.81;5056343;28;20487;-69
2021/08/22 06:10:20;;;;;;;2.92;1.90;;;;;;;15.93;50.14;101387.78;5058957;28;20117;-69
2021/08/22 06:12:46;;;;;;;3.55;2.03;;;;;;;15.89;50.28;101388.88;5061981;28;20025;-68
2021/08/22 06:15:12;;;;;;;2.40;1.33;;;;;;;15.88;50.32;101387.16;5054030;28;20601;-69
2021/08/22 06:17:38;;;;;;;4.72;1.83;;;;;;;15.84;50.86;101390.94;5067973;28;20085;-69
2021/08/22 06:20:05;;;;;;;3.08;1.67;;;;;;;15.86;51.23;101386.38;5055121;28;20112;-69
2021/08/22 06:22:31;;;;;;;2.80;1.65;;;;;;;15.64;51.61;101383.22;5069586;28;20037;-70
2021/08/22 06:24:56;;;;;;;2.10;1.40;;;;;;;15.73;51.43;101383.59;5055509;28;20154;-68
2021/08/22 06:27:22;;;;;;;3.28;1.77;;;;;;;15.65;51.64;101391.03;5052363;28;20040;-68
2021/08/22 06:29:47;;;;;;;4.03;1.88;;;;;;;15.71;51.66;101387.25;5057463;28;20567;-69
2021/08/22 06:32:13;;;;;;;5.20;1.80;;;;;;;15.58;52.16;101387.88;5054908;28;20032;-71
2021/08/22 06:34:38;;;;;;;1.88;1.40;;;;;;;15.62;52.06;101385.06;5046760;28;20029;-69
2021/08/22 06:37:04;;;;;;;2.90;1.23;;;;;;;15.67;52.28;101388.34;5070291;28;20029;-69
2021/08/22 06:39:30;;;;;;;1.80;1.42;;;;;;;15.57;52.53;101386.19;5060819;28;20612;-69
2021/08/22 06:41:55;;;;;;;2.50;1.85;;;;;;;15.48;52.65;101384.06;5069917;28;20059;-69
2021/08/22 06:44:22;;;;;;;1.90;1.48;;;;;;;15.58;52.67;101385.25;5054808;28;20448;-69
2021/08/22 06:46:48;;;;;;;1.90;1.25;;;;;;;15.58;53.26;101381.78;5055835;28;20029;-71
2021/08/22 06:49:14;;;;;;;3.63;1.85;;;;;;;15.68;52.53;101384.75;5056507;28;20048;-70
2021/08/22 06:51:40;;;;;;;2.30;1.88;;;;;;;15.57;52.80;101386.19;5072973;28;20123;-69
2021/08/22 06:54:05;;;;;;;5.00;2.08;;;;;;;15.58;52.83;101382.63;5058909;28;20319;-69
2021/08/22 06:56:32;;;;;;;2.80;2.17;;;;;;;15.69;52.51;101383.84;5055983;28;20585;-69
2021/08/22 06:58:57;;;;;;;3.83;1.58;;;;;;;15.54;52.73;101383.72;5056303;28;20036;-68
2021/08/22 07:01:23;;;;;;;4.40;1.88;;;;;;;15.48;52.98;101378.78;5057591;28;20062;-69
2021/08/22 07:03:48;;;;;;;4.25;1.65;;;;;;;15.47;53.01;101377.06;5056770;28;20075;-70
2021/08/22 07:06:15;;;;;;;1.98;1.48;;;;;;;15.24;53.57;101378.28;5072936;28;20087;-70
2021/08/22 07:08:40;;;;;;;3.47;2.17;;;;;;;15.26;53.80;101383.44;5039966;28;20040;-69
2021/08/22 07:11:06;;;;;;;3.05;1.98;;;;;;;15.16;54.17;101389.16;5073073;28;20120;-69
2021/08/22 07:13:33;;;;;;;3.17;1.92;;;;;;;15.17;54.32;101387.41;5061514;28;20056;-69
2021/08/22 07:15:58;;;;;;;2.95;1.58;;;;;;;15.07;54.70;101381.72;5057576;28;20035;-69
2021/08/22 07:18:24;;;;;;;3.40;2.47;;;;;;;15.08;54.36;101380.81;5053830;28;20041;-69
2021/08/22 07:20:49;;;;;;;3.38;1.95;;;;;;;15.20;54.46;101381.13;5054447;28;20123;-69
2021/08/22 07:23:15;;;;;;;4.50;2.70;;;;;;;15.25;54.18;101387.03;5054182;28;20486;-69
2021/08/22 07:25:41;;;;;;;14.05;5.22;;;;;;;15.32;54.38;101375.22;5071082;28;20037;-69
2021/08/22 07:28:07;;;;;;;2.30;1.98;;;;;;;15.37;54.37;101376.72;5040597;28;20099;-69
2021/08/22 07:30:32;;;;;;;4.57;2.25;;;;;;;15.26;54.31;101380.81;5053821;28;20036;-69
2021/08/22 07:33:01;;;;;;;4.03;2.28;;;;;;;15.32;54.53;101375.22;5067097;28;20041;-69
2021/08/22 07:35:26;;;;;;;2.35;1.95;;;;;;;15.34;54.47;101376.84;5053738;28;20041;-69
2021/08/22 07:37:52;;;;;;;3.88;2.22;;;;;;;15.38;54.74;101377.56;5067977;28;20044;-68
2021/08/22 07:40:17;;;;;;;3.85;2.33;;;;;;;15.26;54.65;101383.44;5066279;28;20436;-69
2021/08/22 07:42:43;;;;;;;2.55;2.05;;;;;;;15.32;55.05;101376.06;5052724;28;20029;-70
2021/08/22 07:45:09;;;;;;;10.30;4.68;;;;;;;15.31;55.02;101376.19;5060676;28;20520;-69
2021/08/22 07:47:34;;;;;;;3.20;2.10;;;;;;;15.14;55.47;101377.84;5050825;28;20085;-69
2021/08/22 07:50:00;;;;;;;8.20;2.22;;;;;;;15.13;55.11;101373.53;5051652;28;20044;-69
2021/08/22 07:52:26;;;;;;;4.47;2.35;;;;;;;15.32;54.88;101372.59;5050568;28;20032;-70
2021/08/22 07:54:51;;;;;;;3.67;2.10;;;;;;;15.31;55.17;101376.19;5052101;28;20089;-69
2021/08/22 07:57:17;;;;;;;3.47;3.10;;;;;;;15.31;55.37;101373.53;5053916;28;20043;-68
2021/08/22 07:59:43;;;;;;;4.18;1.70;;;;;;;15.33;55.64;101372.53;5051007;28;20048;-69
2021/08/22 08:02:08;;;;;;;4.95;2.88;;;;;;;15.38;55.21;101374.91;5068411;28;20482;-69
2021/08/22 08:04:34;;;;;;;6.07;2.95;;;;;;;15.44;55.23;101377.25;5054036;28;20369;-68
2021/08/22 08:06:59;;;;;;;6.15;2.55;;;;;;;15.36;55.82;101379.41;5053912;28;20087;-68
2021/08/22 08:09:25;;;;;;;5.00;2.25;;;;;;;15.38;55.56;101374.91;5053470;28;20047;-68
2021/08/22 08:11:50;;;;;;;3.50;2.70;;;;;;;15.38;55.83;101377.56;5052883;28;20040;-69
2021/08/22 08:14:16;;;;;;;4.90;2.92;;;;;;;15.43;55.47;101385.22;5052164;28;20163;-68
2021/08/22 08:16:42;;;;;;;5.50;2.88;;;;;;;15.34;55.85;101384.75;5053137;28;20041;-68
2021/08/22 08:19:08;;;;;;;4.40;2.90;;;;;;;15.36;55.80;101389.94;5054336;28;20083;-68
2021/08/22 08:21:34;;;;;;;3.08;2.20;;;;;;;14.93;56.60;101392.97;5063229;28;20037;-69
2021/08/22 08:23:59;;;;;;;6.97;2.33;;;;;;;14.89;57.08;101401.94;5039474;28;20044;-68
2021/08/22 08:26:25;;;;;;;3.88;2.60;;;;;;;14.66;57.73;101395.19;5058734;28;20123;-68
2021/08/22 08:28:50;;;;;;;4.35;3.15;;;;;;;14.90;57.16;101408.03;5056008;28;20055;-69
2021/08/22 08:31:17;;;;;;;4.10;3.03;;;;;;;14.99;57.28;101399.69;5054306;28;20037;-68
2021/08/22 08:33:42;;;;;;;4.60;3.83;;;;;;;14.75;57.64;101404.41;5072506;28;20023;-68
2021/08/22 08:36:08;;;;;;;4.82;3.53;;;;;;;14.93;57.21;101400.03;5061867;28;20037;-68
2021/08/22 08:38:33;;;;;;;6.43;3.30;;;;;;;14.89;57.14;101398.47;5070839;28;20389;-69
2021/08/22 08:41:00;;;;;;;4.50;3.67;;;;;;;15.14;56.86;101398.91;5055078;28;20064;-69
2021/08/22 08:43:26;;;;;;;3.63;2.47;;;;;;;14.98;57.13;101400.63;5056385;28;20040;-69
2021/08/22 08:46:13;;;;;;;3.72;2.58;;;;;;;15.06;56.68;101402.88;5069384;28;20048;-68
2021/08/22 08:49:03;;;;;;;7.15;3.75;;;;;;;15.05;56.82;101407.28;5069543;28;20029;-68
2021/08/22 08:51:53;;;;;;;4.13;3.30;;;;;;;15.09;56.59;101400.09;5037721;28;20056;-69
2021/08/22 08:54:22;;;;;;;4.57;3.85;;;;;;;15.05;57.26;101407.28;5071409;28;20051;-67
2021/08/22 08:56:48;;;;;;;4.53;3.22;;;;;;;15.01;56.91;101416.25;5064888;28;20021;-69
2021/08/22 08:59:13;;;;;;;5.68;4.10;;;;;;;14.90;57.39;101418.56;5057392;28;20395;-69
2021/08/22 09:01:39;;;;;;;7.28;3.70;;;;;;;14.59;58.04;101428.00;5056893;28;20032;-70
2021/08/22 09:04:27;;;;;;;5.50;3.53;;;;;;;14.71;58.22;101419.50;5056374;28;20044;-68
2021/08/22 09:07:32;;;;;;;6.53;4.55;;;;;;;14.88;57.81;101423.06;5053523;28;20060;-68
2021/08/22 09:10:35;;;;;;;5.05;3.70;;;;;;;15.02;57.60;101423.25;5052445;28;20064;-68
2021/08/22 09:13:38;;;;;;;5.82;4.03;;;;;;;15.12;57.60;101423.63;5053451;28;20029;-69
2021/08/22 09:16:40;;;;;;;5.80;4.35;;;;;;;15.17;57.48;101421.63;5067711;28;20170;-69
2021/08/22 09:19:43;;;;;;;6.45;3.53;;;;;;;15.14;57.23;101427.88;5055141;28;20049;-69
2021/08/22 09:22:46;;;;;;;7.82;4.18;;;;;;;15.28;57.00;101424.59;5055945;28;20029;-69
2021/08/22 09:25:42;;;;;;;11.13;5.30;;;;;;;15.14;57.64;101437.56;5070841;28;20370;-69
2021/08/22 09:28:36;;;;;;;8.75;4.57;;;;;;;15.05;57.69;101433.59;5070872;28;20078;-69
2021/08/22 09:31:20;;;;;;;6.50;4.18;;;;;;;14.82;58.20;101436.53;5067594;28;20064;-69
2021/08/22 09:34:08;;;;;;;9.63;4.85;;;;;;;14.80;58.20;101439.25;5067244;28;20039;-69
2021/08/22 09:36:53;;;;;;;5.80;3.75;;;;;;;14.96;57.78;101436.69;5030589;28;20478;-69
2021/08/22 09:39:56;;;;;;;6.15;4.50;;;;;;;15.03;58.23;101430.19;5064285;28;20054;-69
2021/08/22 09:42:43;;;;;;;6.22;4.05;;;;;;;14.98;57.88;101435.69;5052834;28;20152;-68
2021/08/22 09:45:46;;;;;;;5.63;4.47;;;;;;;14.94;58.11;101425.41;5054554;28;20042;-68
2021/08/22 09:48:40;;;;;;;8.90;5.43;;;;;;;14.83;58.37;101433.81;5041831;28;20032;-69
2021/08/22 09:51:34;;;;;;;5.85;4.53;;;;;;;14.90;58.14;101429.97;5042685;28;20033;-68
2021/08/22 09:54:37;;;;;;;7.53;5.25;;;;;;;15.30;57.24;101432.41;5059523;28;20516;-68
2021/08/22 09:57:54;;;;;;;7.43;4.60;;;;;;;15.41;57.28;101427.44;5053858;28;20601;-68
2021/08/22 10:00:29;;;;;;;8.43;5.22;;;;;;;15.30;57.39;101440.31;5032626;28;20041;-68
2021/08/22 10:03:23;;;;;;;9.10;5.55;;;;;;;15.30;57.57;101437.66;5053763;28;20024;-69
2021/08/22 10:06:11;;;;;;;5.88;5.03;;;;;;;15.16;57.56;101435.72;5044076;28;20913;-69
2021/08/22 10:08:51;;;;;;;8.98;5.47;;;;;;;14.97;58.29;101435.78;5055340;28;20032;-69
2021/08/22 10:11:26;;;;;;;6.13;4.78;;;;;;;14.70;59.02;101440.59;5054663;28;20044;-69
2021/08/22 10:13:51;;;;;;;8.60;5.22;;;;;;;;;;5051374;28;20035;-69
2021/08/22 10:16:19;;;;;;;7.43;4.80;;;;;;;14.66;59.25;101439.06;5052938;28;20029;-68
2021/08/22 10:18:44;;;;;;;7.38;5.63;;;;;;;14.69;59.12;101442.38;5053474;28;20449;-69
2021/08/22 10:21:11;;;;;;;9.85;5.07;;;;;;;14.92;58.83;101438.63;5052735;28;20047;-68
2021/08/22 10:23:41;;;;;;;5.70;5.05;;;;;;;15.03;58.47;101435.47;5058313;28;20017;-69
2021/08/22 10:26:08;;;;;;;7.68;5.88;;;;;;;15.06;58.28;101442.34;5069292;28;20041;-68
2021/08/22 10:28:54;;;;;;;9.30;5.53;;;;;;;15.01;58.53;101447.84;5054514;28;20059;-69
2021/08/22 10:31:50;;;;;;;9.27;6.05;;;;;;;14.86;59.08;101443.38;5060554;28;20456;-68
2021/08/22 10:34:20;;;;;;;7.50;5.13;;;;;;;14.85;59.24;101447.75;5070987;28;20529;-69
2021/08/22 10:36:45;;;;;;;8.70;4.97;;;;;;;14.99;58.95;101447.06;5054913;28;20047;-68
2021/08/22 10:39:26;;;;;;;6.53;4.53;;;;;;;15.06;58.58;101448.50;5040976;28;20041;-68
2021/08/22 10:41:58;;;;;;;7.72;4.93;;;;;;;14.90;59.13;101450.16;5052417;28;20025;-69
2021/08/22 10:44:33;;;;;;;7.93;5.55;;;;;;;14.86;59.06;101456.53;5069940;28;20041;-68
2021/08/22 10:47:05;;;;;;;9.68;6.45;;;;;;;14.71;59.55;101451.06;5060157;28;20393;-69
2021/08/22 10:49:50;;;;;;;9.70;5.38;;;;;;;14.89;59.43;101459.00;5060765;28;20498;-69
2021/08/22 10:52:28;;;;;;;7.32;3.90;;;;;;;14.89;59.47;101453.72;5067924;28;20044;-69
2021/08/22 10:55:06;;;;;;;5.55;3.65;;;;;;;14.93;59.34;101452.66;5066952;28;20060;-70
2021/08/22 11:00:25;;;;;;;4.18;3.10;;;;;;;15.04;58.86;101450.34;5055962;28;20120;-68
2021/08/22 11:02:55;;;;;;;3.13;2.80;;;;;;;14.91;59.63;101451.88;5055825;28;20399;-69
2021/08/22 11:05:22;;;;;;;3.22;2.58;;;;;;;14.92;59.12;101456.19;5057958;28;20543;-68
2021/08/22 11:07:54;;;;;;;3.88;2.55;;;;;;;15.22;58.77;101450.38;5052314;28;20032;-69
2021/08/22 11:10:28;;;;;;;5.35;3.50;;;;;;;15.31;58.76;101452.56;5054011;28;20664;-69
2021/08/22 11:12:54;;;;;;;4.75;3.33;;;;;;;15.50;58.28;101450.66;5060298;28;20075;-69
2021/08/22 11:15:25;;;;;;;7.75;4.05;;;;;;;15.56;57.98;101452.97;5055739;28;20028;-69
2021/08/22 11:17:56;;;;;;;9.40;4.03;;;;;;;15.46;58.50;101449.13;5054211;28;20052;-69
2021/08/22 11:20:26;;;;;;;5.03;3.45;;;;;;;15.56;58.06;101450.34;5052622;28;20318;-69
2021/08/22 11:23:17;;;;;;;5.35;2.97;;;;;;;15.50;58.05;101448.03;5052840;28;20047;-69
2021/08/22 11:25:45;;;;;;;4.20;2.75;;;;;;;15.51;57.82;101468.19;5069372;28;20033;-69
2021/08/22 11:28:11;;;;;;;7.32;2.22;;;;;;;15.38;58.04;101461.84;5059766;28;20041;-69
2021/08/22 11:30:38;;;;;;;3.70;2.25;;;;;;;15.29;58.43;101462.31;5052646;28;20035;-69
2021/08/22 11:33:05;;;;;;;2.20;1.98;;;;;;;15.25;58.24;101463.38;5057837;28;20082;-69
2021/08/22 11:35:34;;;;;;;3.25;2.10;;;;;;;15.30;58.29;101464.84;5051700;28;20052;-69
2021/08/22 11:38:00;;;;;;;3.15;2.33;;;;;;;15.29;58.58;101463.16;5055429;28;20143;-69
2021/08/22 11:40:27;;;;;;;3.75;2.40;;;;;;;15.34;58.48;101465.56;5068062;28;20028;-70